Time;durP1;ratioP1;P1;durP2;ratioP2;P2;SDS_P1;SDS_P2;PMS_P1;PMS_P2;Temp;Humidity;BMP_temperature;BMP_pressure;BME280_temperature;BME280_humidity;BME280_pressure;Samples;Min_cycle;Max_cycle;Signal;HPM_P1;HPM_P2
2021/09/06 00:00:39;;;;;;;9.37;8.00;;;;;;;18.99;76.66;96841.50;5054366;28;20633;-66
2021/09/06 00:03:05;;;;;;;8.97;8.17;;;;;;;18.97;76.41;96838.28;5053848;28;20179;-59
2021/09/06 00:05:30;;;;;;;7.90;7.10;;;;;;;18.95;77.04;96839.63;5054278;28;20191;-67
2021/09/06 00:07:56;;;;;;;8.80;7.97;;;;;;;18.94;76.98;96835.34;5053812;28;20626;-66
2021/09/06 00:10:44;;;;;;;8.30;7.60;;;;;;;18.94;76.81;96827.38;5061587;28;20206;-60
2021/09/06 00:13:13;;;;;;;9.07;8.17;;;;;;;18.90;77.09;96828.97;5073678;28;20175;-59
2021/09/06 00:15:40;;;;;;;7.83;7.03;;;;;;;18.89;76.75;96820.19;5074013;28;20513;-66
2021/09/06 00:18:05;;;;;;;7.60;6.80;;;;;;;18.83;77.31;96828.44;5073838;28;20409;-66
2021/09/06 00:20:33;;;;;;;7.73;7.03;;;;;;;18.87;76.72;96822.31;5073737;28;20405;-66
2021/09/06 00:22:58;;;;;;;8.30;7.40;;;;;;;18.88;76.58;96823.91;5073166;28;20455;-66
2021/09/06 00:25:24;;;;;;;7.80;7.20;;;;;;;18.85;76.35;96823.63;5070198;28;20866;-59
2021/09/06 00:27:49;;;;;;;8.97;7.73;;;;;;;18.82;76.57;96822.31;5073773;28;20167;-59
2021/09/06 00:30:15;;;;;;;7.33;6.73;;;;;;;18.86;76.48;96825.25;5073557;28;20235;-66
2021/09/06 00:32:40;;;;;;;7.20;6.50;;;;;;;18.84;76.09;96825.50;5073548;28;20175;-66
2021/09/06 00:35:07;;;;;;;9.20;7.40;;;;;;;18.77;76.57;96822.31;5073553;28;20315;-59
2021/09/06 00:37:32;;;;;;;8.47;7.57;;;;;;;18.79;76.35;96824.72;5073615;28;20185;-59
2021/09/06 00:39:57;;;;;;;7.60;6.90;;;;;;;18.76;76.19;96825.22;5068078;28;20413;-66
2021/09/06 00:42:23;;;;;;;6.80;6.20;;;;;;;18.73;76.38;96831.09;5060600;28;20184;-59
2021/09/06 00:44:48;;;;;;;8.27;7.57;;;;;;;18.75;76.26;96823.66;5053072;28;20197;-59
2021/09/06 00:47:15;;;;;;;7.63;6.93;;;;;;;18.75;76.33;96816.44;5053709;28;20229;-66
2021/09/06 00:49:40;;;;;;;7.97;7.27;;;;;;;18.71;76.23;96819.91;5053538;28;20199;-59
2021/09/06 00:52:06;;;;;;;8.70;8.00;;;;;;;18.68;76.43;96820.44;5053501;28;20907;-59
2021/09/06 00:54:32;;;;;;;8.83;7.93;;;;;;;18.65;76.36;96824.44;5055713;28;20209;-59
2021/09/06 00:56:58;;;;;;;8.33;7.30;;;;;;;18.59;76.53;96827.38;5073354;28;20491;-59
2021/09/06 00:59:23;;;;;;;9.90;8.10;;;;;;;18.58;75.83;96820.44;5073512;28;20576;-58
2021/09/06 01:01:48;;;;;;;8.17;7.37;;;;;;;18.52;76.15;96822.28;5073408;28;20576;-66
2021/09/06 01:04:14;;;;;;;8.43;7.70;;;;;;;18.48;76.53;96823.09;5072834;28;20179;-59
2021/09/06 01:06:39;;;;;;;7.90;7.20;;;;;;;18.53;76.58;96821.22;5073454;28;20171;-60
2021/09/06 01:09:05;;;;;;;7.37;6.73;;;;;;;18.56;76.21;96820.69;5071483;28;20182;-59
2021/09/06 01:11:30;;;;;;;8.13;7.33;;;;;;;18.54;76.22;96819.34;5053208;28;20172;-60
2021/09/06 01:13:56;;;;;;;9.60;7.33;;;;;;;18.55;76.48;96821.78;5053049;28;20214;-59
2021/09/06 01:16:22;;;;;;;8.50;7.70;;;;;;;18.53;76.77;96823.09;5053313;28;20195;-66
2021/09/06 01:18:48;;;;;;;7.90;7.20;;;;;;;18.47;76.73;96816.97;5053304;28;20287;-66
2021/09/06 01:21:14;;;;;;;7.90;7.20;;;;;;;18.46;77.04;96823.34;5053041;28;20957;-66
2021/09/06 01:23:40;;;;;;;8.60;7.57;;;;;;;18.45;76.87;96825.22;5052656;28;20178;-65
2021/09/06 01:26:05;;;;;;;8.30;7.50;;;;;;;18.43;76.68;96827.31;5072704;28;20815;-66
2021/09/06 01:28:31;;;;;;;8.50;7.70;;;;;;;18.37;76.80;96825.69;5073297;28;20179;-59
2021/09/06 01:30:56;;;;;;;8.10;7.40;;;;;;;18.32;76.82;96827.53;5073093;28;20207;-66
2021/09/06 01:33:21;;;;;;;7.83;7.13;;;;;;;18.26;76.76;96824.06;5072777;28;20216;-66
2021/09/06 01:35:47;;;;;;;8.67;7.87;;;;;;;18.25;77.11;96838.44;5076842;28;20194;-66
2021/09/06 01:38:12;;;;;;;7.20;6.60;;;;;;;18.31;77.02;96836.59;5076957;28;20704;-66
2021/09/06 01:40:38;;;;;;;8.27;7.57;;;;;;;18.27;76.82;96836.31;5075457;28;20171;-59
2021/09/06 01:43:03;;;;;;;8.30;7.50;;;;;;;18.27;76.88;96831.00;5076523;28;20583;-59
2021/09/06 01:45:29;;;;;;;7.60;7.00;;;;;;;18.26;76.72;96834.69;5075161;28;20226;-59
2021/09/06 01:47:54;;;;;;;8.50;7.23;;;;;;;18.22;76.74;96835.50;5067075;28;20198;-66
2021/09/06 01:50:19;;;;;;;8.50;7.60;;;;;;;18.21;76.65;96824.03;5056809;28;20203;-60
2021/09/06 01:52:45;;;;;;;8.37;6.90;;;;;;;18.22;76.95;96830.97;5056314;28;20224;-66
2021/09/06 01:55:10;;;;;;;7.53;6.87;;;;;;;18.22;76.74;96832.84;5056696;28;20549;-66
2021/09/06 01:57:36;;;;;;;7.20;6.50;;;;;;;18.19;76.84;96834.16;5056667;28;20645;-59
2021/09/06 02:00:01;;;;;;;8.40;7.60;;;;;;;18.20;76.57;96830.44;5056872;28;20175;-66
2021/09/06 02:02:27;;;;;;;8.20;7.50;;;;;;;18.16;76.98;96833.88;5063647;28;20182;-66
2021/09/06 02:04:52;;;;;;;7.27;6.57;;;;;;;18.12;77.29;96832.78;5074737;28;20240;-66
2021/09/06 02:07:18;;;;;;;8.20;7.40;;;;;;;18.08;77.42;96832.50;5076332;28;20169;-59
2021/09/06 02:09:44;;;;;;;6.80;6.20;;;;;;;18.02;77.50;96833.56;5076236;28;20195;-59
2021/09/06 02:12:09;;;;;;;7.70;7.03;;;;;;;18.05;77.58;96832.22;5076404;28;20416;-59
2021/09/06 02:14:35;;;;;;;7.80;7.00;;;;;;;18.04;77.36;96836.78;5075881;28;20190;-66
2021/09/06 02:17:00;;;;;;;8.03;7.27;;;;;;;18.03;77.16;96835.16;5058305;28;20245;-59
2021/09/06 02:19:26;;;;;;;7.30;6.70;;;;;;;17.99;77.64;96839.41;5056131;28;20175;-60
2021/09/06 02:21:51;;;;;;;7.67;6.90;;;;;;;18.01;77.47;96841.81;5056255;28;20649;-59
2021/09/06 02:24:17;;;;;;;7.90;7.20;;;;;;;18.02;77.44;96844.22;5055542;28;20297;-59
2021/09/06 02:26:42;;;;;;;7.30;6.60;;;;;;;18.04;77.22;96844.75;5056247;28;20174;-59
2021/09/06 02:29:10;;;;;;;7.87;7.07;;;;;;;18.00;77.23;96834.88;5056016;28;20176;-59
2021/09/06 02:31:35;;;;;;;7.80;7.10;;;;;;;17.96;77.42;96849.75;5072127;28;20261;-59
2021/09/06 02:34:00;;;;;;;8.40;7.50;;;;;;;17.95;77.52;96845.50;5075512;28;20491;-66
2021/09/06 02:36:26;;;;;;;8.07;7.30;;;;;;;17.94;77.34;96838.56;5076001;28;20551;-59
2021/09/06 02:38:51;;;;;;;7.30;6.53;;;;;;;17.92;77.40;96838.03;5070916;28;20191;-60
2021/09/06 02:41:17;;;;;;;7.93;7.17;;;;;;;17.89;77.20;96844.69;5056159;28;20168;-66
2021/09/06 02:43:42;;;;;;;7.73;7.07;;;;;;;17.86;76.96;96845.22;5055321;28;20169;-66
2021/09/06 02:46:07;;;;;;;8.00;7.33;;;;;;;17.82;77.25;96844.13;5068713;28;20614;-59
2021/09/06 02:48:33;;;;;;;8.53;7.60;;;;;;;17.80;77.13;96848.91;5075799;28;20246;-59
2021/09/06 02:50:58;;;;;;;8.40;7.50;;;;;;;17.78;76.98;96842.22;5075685;28;20190;-66
2021/09/06 02:53:24;;;;;;;8.27;7.53;;;;;;;17.75;77.13;96846.22;5075197;28;20185;-59
2021/09/06 02:55:49;;;;;;;7.70;7.00;;;;;;;17.76;77.50;96845.16;5075436;28;20189;-59
2021/09/06 02:58:14;;;;;;;8.80;8.00;;;;;;;17.74;78.04;96851.78;5076140;28;20171;-66
2021/09/06 03:00:40;;;;;;;8.50;7.70;;;;;;;17.71;77.79;96850.44;5062326;28;20198;-66
2021/09/06 03:03:05;;;;;;;8.60;7.80;;;;;;;17.69;77.82;96849.91;5062877;28;20171;-59
2021/09/06 03:05:31;;;;;;;7.90;7.20;;;;;;;17.70;78.18;96848.84;5075359;28;20191;-59
2021/09/06 03:07:58;;;;;;;7.57;6.87;;;;;;;17.69;77.91;96847.25;5075331;28;20163;-59
2021/09/06 03:10:23;;;;;;;9.17;8.30;;;;;;;17.67;78.14;96844.03;5075171;28;20530;-66
2021/09/06 03:12:49;;;;;;;7.70;7.00;;;;;;;17.68;78.11;96843.00;5074891;28;20908;-66
2021/09/06 03:15:14;;;;;;;8.03;7.47;;;;;;;17.67;77.96;96843.22;5071655;28;20598;-66
2021/09/06 03:17:40;;;;;;;7.67;6.97;;;;;;;17.62;77.62;96844.03;5075328;28;20171;-66
2021/09/06 03:20:06;;;;;;;9.37;8.40;;;;;;;17.61;77.67;96834.44;5075198;28;20169;-59
2021/09/06 03:22:31;;;;;;;9.00;8.20;;;;;;;17.62;78.31;96832.59;5075040;28;20189;-59
2021/09/06 03:24:57;;;;;;;8.93;8.10;;;;;;;17.60;78.37;96837.34;5074335;28;20919;-66
2021/09/06 03:27:22;;;;;;;9.00;7.80;;;;;;;17.59;78.02;96836.56;5075021;28;20159;-66
2021/09/06 03:29:48;;;;;;;9.10;8.03;;;;;;;17.62;77.89;96837.91;5069470;28;20194;-59
2021/09/06 03:32:13;;;;;;;9.30;8.40;;;;;;;17.54;77.89;96836.53;5054941;28;20163;-66
2021/09/06 03:34:39;;;;;;;9.70;8.80;;;;;;;17.56;77.85;96834.41;5054295;28;20596;-66
2021/09/06 03:37:06;;;;;;;10.20;7.83;;;;;;;17.54;77.88;96836.53;5054715;28;20172;-59
2021/09/06 03:39:32;;;;;;;8.43;7.70;;;;;;;17.50;77.81;96834.66;5053389;28;20630;-66
2021/09/06 03:41:57;;;;;;;8.07;7.23;;;;;;;17.43;77.90;96825.00;5054813;28;20404;-59
2021/09/06 03:44:24;;;;;;;8.87;7.93;;;;;;;17.43;77.99;96830.31;5054672;28;20248;-59
2021/09/06 03:46:50;;;;;;;9.23;8.23;;;;;;;17.40;78.09;96832.69;5054705;28;20561;-59
2021/09/06 03:49:16;;;;;;;9.07;8.27;;;;;;;17.39;78.07;96834.53;5054496;28;20438;-60
2021/09/06 03:51:41;;;;;;;10.00;9.00;;;;;;;17.38;77.96;96837.47;5054626;28;20837;-66
2021/09/06 03:54:06;;;;;;;9.00;8.10;;;;;;;17.37;77.72;96833.22;5054090;28;20181;-59
2021/09/06 03:56:32;;;;;;;8.80;7.93;;;;;;;17.31;77.58;96827.06;5054047;28;20231;-66
2021/09/06 03:58:57;;;;;;;9.00;8.20;;;;;;;17.29;77.92;96836.34;5056206;28;20202;-66
2021/09/06 04:01:23;;;;;;;9.27;8.33;;;;;;;17.24;77.90;96831.81;5074416;28;20675;-66
2021/09/06 04:03:48;;;;;;;8.60;7.80;;;;;;;17.20;78.39;96835.22;5073835;28;20167;-66
2021/09/06 04:06:13;;;;;;;8.67;7.83;;;;;;;17.21;78.20;96834.19;5072838;28;20190;-66
2021/09/06 04:08:39;;;;;;;7.77;7.07;;;;;;;17.20;78.03;96829.91;5074166;28;20569;-66
2021/09/06 04:11:04;;;;;;;11.37;7.63;;;;;;;17.21;77.88;96836.84;5074198;28;20195;-59
2021/09/06 04:13:29;;;;;;;7.90;7.13;;;;;;;17.19;77.51;96837.06;5071556;28;20170;-59
2021/09/06 04:15:55;;;;;;;8.37;7.60;;;;;;;17.10;77.86;96838.59;5053882;28;20285;-59
2021/09/06 04:18:20;;;;;;;8.67;7.87;;;;;;;17.02;78.65;96838.28;5054136;28;20171;-66
2021/09/06 04:20:45;;;;;;;8.77;7.87;;;;;;;17.05;78.85;96841.22;5053902;28;20167;-59
2021/09/06 04:23:11;;;;;;;8.93;8.13;;;;;;;17.00;78.76;96840.38;5053469;28;20172;-66
2021/09/06 04:25:37;;;;;;;8.97;7.63;;;;;;;16.97;79.21;96840.91;5053687;28;20199;-59
2021/09/06 04:28:03;;;;;;;7.73;6.77;;;;;;;16.94;78.96;96847.50;5053821;28;20531;-66
2021/09/06 04:30:28;;;;;;;8.80;8.00;;;;;;;16.98;78.92;96847.78;5068018;28;20190;-66
2021/09/06 04:32:53;;;;;;;8.33;7.63;;;;;;;17.00;78.61;96851.81;5066579;28;21076;-66
2021/09/06 04:35:19;;;;;;;8.17;7.13;;;;;;;16.97;78.61;96848.88;5073612;28;20190;-59
2021/09/06 04:37:44;;;;;;;7.60;6.90;;;;;;;16.99;78.69;96854.72;5073649;28;20495;-59
2021/09/06 04:40:10;;;;;;;9.43;8.27;;;;;;;16.96;78.63;96861.31;5073698;28;20169;-60
2021/09/06 04:42:36;;;;;;;7.80;7.10;;;;;;;16.93;78.66;96864.50;5073488;28;20173;-65
2021/09/06 04:45:02;;;;;;;8.37;7.67;;;;;;;16.87;78.78;96875.31;5069448;28;20799;-65
2021/09/06 04:47:27;;;;;;;7.93;7.23;;;;;;;16.88;78.75;96871.63;5053649;28;20168;-60
2021/09/06 04:49:52;;;;;;;9.20;8.40;;;;;;;16.87;78.69;96872.66;5053369;28;20449;-59
2021/09/06 04:52:19;;;;;;;8.50;7.70;;;;;;;16.79;79.05;96873.13;5052212;28;20194;-59
2021/09/06 04:54:44;;;;;;;8.87;8.00;;;;;;;16.81;79.04;96871.84;5053032;28;20288;-66
2021/09/06 04:57:09;;;;;;;9.73;8.70;;;;;;;16.81;79.19;96881.66;5053711;28;20449;-59
2021/09/06 04:59:35;;;;;;;8.90;8.20;;;;;;;16.83;79.31;96879.53;5053426;28;20172;-66
2021/09/06 05:02:00;;;;;;;9.67;8.43;;;;;;;16.79;79.61;96881.91;5071866;28;20654;-60
2021/09/06 05:04:25;;;;;;;8.60;7.70;;;;;;;16.82;79.51;96886.69;5073096;28;20174;-66
2021/09/06 05:06:51;;;;;;;8.50;7.43;;;;;;;16.80;79.52;96886.16;5068395;28;20178;-66
2021/09/06 05:09:16;;;;;;;10.10;7.80;;;;;;;16.75;79.56;96893.25;5059127;28;20184;-66
2021/09/06 05:11:42;;;;;;;8.60;7.80;;;;;;;16.78;79.59;96893.56;5053234;28;20621;-66
2021/09/06 05:14:07;;;;;;;8.60;7.80;;;;;;;16.76;79.74;96900.19;5069051;28;20207;-66
2021/09/06 05:16:32;;;;;;;9.27;8.40;;;;;;;16.73;79.64;96896.16;5053292;28;20205;-59
2021/09/06 05:18:58;;;;;;;8.60;7.57;;;;;;;16.73;79.82;96904.13;5053554;28;20255;-66
2021/09/06 05:21:23;;;;;;;8.53;7.73;;;;;;;16.75;80.28;96911.84;5053179;28;20217;-59
2021/09/06 05:23:52;;;;;;;10.13;9.20;;;;;;;16.73;80.29;96898.00;5051543;28;20179;-66
2021/09/06 05:26:18;;;;;;;9.37;8.47;;;;;;;16.72;80.15;96902.53;5051941;28;20219;-66
2021/09/06 05:28:43;;;;;;;8.50;7.70;;;;;;;16.76;80.26;96902.84;5055220;28;20456;-59
2021/09/06 05:31:10;;;;;;;9.13;8.23;;;;;;;16.79;80.35;96903.13;5073132;28;20191;-60
2021/09/06 05:33:36;;;;;;;9.50;8.57;;;;;;;16.79;80.30;96905.78;5072697;28;20167;-59
2021/09/06 05:36:01;;;;;;;9.13;8.23;;;;;;;16.81;80.55;96908.19;5072964;28;20504;-59
2021/09/06 05:38:27;;;;;;;10.33;9.33;;;;;;;16.83;80.36;96911.41;5073098;28;20621;-66
2021/09/06 05:40:52;;;;;;;11.43;9.27;;;;;;;16.84;80.71;96920.94;5073084;28;20190;-66
2021/09/06 05:43:18;;;;;;;9.17;8.37;;;;;;;16.83;80.90;96917.47;5071725;28;20179;-65
2021/09/06 05:45:43;;;;;;;8.93;8.13;;;;;;;16.91;80.69;96926.84;5059502;28;20195;-60
2021/09/06 05:48:08;;;;;;;9.80;8.30;;;;;;;16.92;81.16;96925.81;5056847;28;20662;-59
2021/09/06 05:50:34;;;;;;;11.50;9.00;;;;;;;16.92;81.20;96918.63;5052762;28;20282;-66
2021/09/06 05:52:59;;;;;;;10.67;9.67;;;;;;;16.91;81.47;96926.84;5052455;28;20638;-59
2021/09/06 05:55:25;;;;;;;11.93;10.20;;;;;;;16.90;82.13;96928.72;5052753;28;20673;-66
2021/09/06 05:57:52;;;;;;;10.60;9.57;;;;;;;16.91;82.44;96932.97;5052849;28;20172;-66
2021/09/06 06:00:17;;;;;;;10.00;9.00;;;;;;;16.98;82.57;96924.78;5051658;28;20522;-66
2021/09/06 06:02:45;;;;;;;11.20;10.10;;;;;;;17.00;82.97;96933.31;5070550;28;20425;-59
2021/09/06 06:05:10;;;;;;;12.97;10.63;;;;;;;17.08;82.83;96927.56;5072892;28;20186;-66
2021/09/06 06:07:36;;;;;;;12.40;10.70;;;;;;;17.13;83.10;96935.56;5072789;28;20432;-59
2021/09/06 06:10:02;;;;;;;16.40;10.20;;;;;;;17.15;83.62;96931.63;5072537;28;20529;-59
2021/09/06 06:12:30;;;;;;;10.50;9.53;;;;;;;17.25;83.54;96928.22;5072640;28;20633;-59
2021/09/06 06:14:56;;;;;;;11.63;10.43;;;;;;;17.34;83.54;96926.69;5058025;28;20441;-59
2021/09/06 06:17:21;;;;;;;10.40;9.40;;;;;;;17.40;83.67;96928.34;5053053;28;20485;-59
2021/09/06 06:19:46;;;;;;;12.43;11.17;;;;;;;17.44;83.77;96924.13;5052730;28;20163;-66
2021/09/06 06:22:12;;;;;;;10.33;9.23;;;;;;;17.48;83.99;96927.13;5060005;28;20182;-66
2021/09/06 06:24:38;;;;;;;9.23;8.40;;;;;;;17.51;84.25;96931.91;5075645;28;20238;-59
2021/09/06 06:27:03;;;;;;;10.13;9.03;;;;;;;17.60;84.19;96930.38;5076220;28;20175;-66
2021/09/06 06:29:29;;;;;;;10.70;9.60;;;;;;;17.68;84.23;96922.75;5075860;28;20182;-65
2021/09/06 06:31:54;;;;;;;11.20;10.10;;;;;;;17.74;84.24;96934.19;5072565;28;20203;-59
2021/09/06 06:34:20;;;;;;;11.90;9.83;;;;;;;17.79;84.36;96934.25;5055317;28;20182;-59
2021/09/06 06:36:45;;;;;;;10.93;8.83;;;;;;;17.88;84.21;96938.03;5055965;28;20629;-66
2021/09/06 06:39:11;;;;;;;10.43;9.53;;;;;;;17.94;84.45;96942.28;5055892;28;20174;-59
2021/09/06 06:41:37;;;;;;;10.00;9.00;;;;;;;18.03;84.25;96952.19;5055637;28;20164;-66
2021/09/06 06:44:04;;;;;;;11.17;9.20;;;;;;;18.12;83.54;96941.84;5058320;28;20440;-60
2021/09/06 06:46:29;;;;;;;9.40;8.50;;;;;;;18.16;82.68;96946.41;5065300;28;20191;-61
2021/09/06 06:48:55;;;;;;;9.93;8.97;;;;;;;18.26;82.64;96954.44;5073503;28;20416;-66
2021/09/06 06:51:20;;;;;;;10.43;8.73;;;;;;;18.31;81.05;96956.31;5075709;28;20630;-64
2021/09/06 06:53:46;;;;;;;9.37;8.57;;;;;;;18.44;80.85;96958.56;5075207;28;20178;-66
2021/09/06 06:56:12;;;;;;;9.70;8.23;;;;;;;18.48;80.94;96957.75;5075482;28;20210;-64
2021/09/06 06:58:37;;;;;;;8.60;7.70;;;;;;;18.55;81.14;96954.88;5075658;28;20895;-68
2021/09/06 07:01:02;;;;;;;9.13;8.30;;;;;;;18.64;81.14;96961.28;5063053;28;20245;-68
2021/09/06 07:03:29;;;;;;;10.23;8.33;;;;;;;18.69;81.13;96955.97;5075128;28;20192;-63
2021/09/06 07:05:55;;;;;;;8.33;7.53;;;;;;;18.75;80.97;96956.78;5075337;28;20197;-63
2021/09/06 07:08:20;;;;;;;9.43;7.90;;;;;;;18.79;81.08;96953.31;5075437;28;20405;-63
2021/09/06 07:10:46;;;;;;;8.73;7.97;;;;;;;18.85;81.16;96954.94;5075314;28;20191;-61
2021/09/06 07:13:11;;;;;;;8.90;8.03;;;;;;;18.87;81.00;96958.16;5074966;28;20664;-60
2021/09/06 07:15:37;;;;;;;8.33;7.53;;;;;;;18.94;81.04;96955.22;5072177;28;20190;-60
2021/09/06 07:18:04;;;;;;;9.10;7.83;;;;;;;18.95;80.66;96960.28;5055444;28;20309;-62
2021/09/06 07:20:29;;;;;;;8.07;7.27;;;;;;;18.99;80.64;96958.69;5090227;28;20951;-61
2021/09/06 07:22:55;;;;;;;10.40;6.90;;;;;;;19.06;80.57;96959.25;5091439;28;20495;-63
2021/09/06 07:25:20;;;;;;;8.50;7.70;;;;;;;19.11;80.26;96956.56;5091513;28;20346;-64
2021/09/06 07:27:46;;;;;;;9.00;8.10;;;;;;;19.13;80.54;96959.00;5076288;28;20257;-66
2021/09/06 07:30:12;;;;;;;8.63;7.73;;;;;;;19.19;80.30;96958.72;5088668;28;20248;-61
2021/09/06 07:32:37;;;;;;;8.57;7.77;;;;;;;19.24;80.22;96963.28;5085964;28;20212;-67
2021/09/06 07:35:04;;;;;;;8.60;7.70;;;;;;;19.30;79.64;96962.19;5071345;28;20424;-60
2021/09/06 07:37:30;;;;;;;8.90;8.03;;;;;;;19.35;79.60;96967.56;5071345;28;20170;-60
2021/09/06 07:39:56;;;;;;;9.47;8.57;;;;;;;19.40;79.39;96967.59;5071169;28;20534;-63
2021/09/06 07:42:22;;;;;;;9.07;7.60;;;;;;;19.48;79.31;96974.25;5071691;28;20511;-69
2021/09/06 07:44:47;;;;;;;11.43;8.53;;;;;;;19.55;79.36;96975.56;5070696;28;20425;-67
2021/09/06 07:47:14;;;;;;;10.57;8.30;;;;;;;19.64;78.94;96973.19;5071059;28;20307;-67
2021/09/06 07:49:41;;;;;;;8.67;7.97;;;;;;;19.68;78.88;96980.38;5065201;28;20186;-59
2021/09/06 07:52:06;;;;;;;9.00;8.10;;;;;;;19.75;78.41;96986.22;5062962;28;20413;-60
2021/09/06 07:54:32;;;;;;;8.60;7.80;;;;;;;19.83;78.05;96980.38;5081803;28;20436;-66
2021/09/06 07:56:57;;;;;;;8.20;7.50;;;;;;;19.90;77.45;96980.88;5060909;28;20175;-69
2021/09/06 07:59:22;;;;;;;9.03;7.53;;;;;;;19.96;77.26;96993.16;5063931;28;20273;-66
2021/09/06 08:01:48;;;;;;;7.77;6.97;;;;;;;20.03;77.03;96991.00;5068005;28;20202;-67
2021/09/06 08:04:14;;;;;;;8.53;7.73;;;;;;;20.11;76.56;96990.44;5058992;28;20687;-61
2021/09/06 08:06:44;;;;;;;7.87;7.17;;;;;;;20.15;76.27;96996.03;5058316;28;20175;-58
2021/09/06 08:09:09;;;;;;;7.10;6.37;;;;;;;20.22;74.68;96997.38;5058513;28;20924;-64
2021/09/06 08:11:35;;;;;;;7.57;6.73;;;;;;;20.29;73.96;97003.25;5050470;28;20510;-62
2021/09/06 08:14:00;;;;;;;7.43;6.73;;;;;;;20.40;73.55;97004.81;5050271;28;20172;-66
2021/09/06 08:16:26;;;;;;;7.87;7.00;;;;;;;20.46;73.15;97006.41;5050500;28;20541;-63
2021/09/06 08:18:52;;;;;;;7.70;7.00;;;;;;;20.58;73.12;97013.31;5050144;28;20172;-70
2021/09/06 08:21:18;;;;;;;7.80;7.03;;;;;;;20.66;73.01;97005.53;5050565;28;20390;-59
2021/09/06 08:23:43;;;;;;;8.97;8.03;;;;;;;20.73;72.69;97005.22;5055440;28;20780;-66
2021/09/06 08:26:09;;;;;;;8.07;7.20;;;;;;;20.83;71.92;97018.56;5070718;28;20214;-66
2021/09/06 08:28:35;;;;;;;8.20;7.47;;;;;;;20.93;71.85;97018.50;5070311;28;20163;-64
2021/09/06 08:31:01;;;;;;;8.40;7.50;;;;;;;20.99;72.04;97022.75;5069726;28;20202;-62
2021/09/06 08:33:27;;;;;;;8.00;7.30;;;;;;;21.07;71.37;97024.91;5070214;28;20479;-68
2021/09/06 08:35:53;;;;;;;7.40;6.70;;;;;;;21.17;71.54;97030.97;5070159;28;20532;-63
2021/09/06 08:38:19;;;;;;;7.43;6.73;;;;;;;21.22;70.95;97032.81;5070262;28;20819;-68
2021/09/06 08:40:45;;;;;;;7.80;7.00;;;;;;;21.31;70.19;97039.97;5062001;28;20261;-67
2021/09/06 08:43:11;;;;;;;7.57;6.87;;;;;;;21.39;70.24;97041.28;5058750;28;20235;-67
2021/09/06 08:45:37;;;;;;;7.50;6.80;;;;;;;21.44;69.30;97033.22;5068731;28;20831;-58
2021/09/06 08:48:03;;;;;;;6.93;6.33;;;;;;;21.50;69.49;97040.91;5073561;28;20258;-58
2021/09/06 08:50:29;;;;;;;7.83;6.70;;;;;;;21.57;69.21;97035.28;5068013;28;20502;-67
2021/09/06 08:52:55;;;;;;;8.20;6.50;;;;;;;21.70;68.04;97041.88;5060261;28;20452;-67
2021/09/06 08:55:21;;;;;;;7.20;6.50;;;;;;;21.76;67.75;97030.06;5053149;28;20198;-59
2021/09/06 08:57:47;;;;;;;7.70;7.00;;;;;;;21.91;65.30;97033.44;5053184;28;20175;-67
2021/09/06 09:00:13;;;;;;;7.47;6.83;;;;;;;21.90;66.03;97031.84;5053298;28;20511;-67
2021/09/06 09:02:42;;;;;;;7.60;6.73;;;;;;;22.01;65.83;97040.56;5053067;28;20171;-59
2021/09/06 09:05:09;;;;;;;7.50;6.30;;;;;;;22.07;65.95;97039.44;5053242;28;20433;-59
2021/09/06 09:07:36;;;;;;;7.80;7.10;;;;;;;22.22;66.03;97036.63;5053503;28;20437;-59
2021/09/06 09:10:03;;;;;;;8.07;7.37;;;;;;;22.27;65.32;97037.38;5053293;28;20456;-59
2021/09/06 09:12:29;;;;;;;7.93;7.00;;;;;;;22.31;62.02;97035.72;5053002;28;20424;-59
2021/09/06 09:14:58;;;;;;;6.30;5.70;;;;;;;22.41;62.41;97037.53;5052621;28;20430;-59
2021/09/06 09:17:24;;;;;;;9.80;6.97;;;;;;;22.46;61.56;97027.50;5053398;28;20182;-59
2021/09/06 09:19:51;;;;;;;7.20;6.60;;;;;;;22.57;61.69;97030.94;5053290;28;20404;-59
2021/09/06 09:22:19;;;;;;;7.90;6.30;;;;;;;22.71;61.96;97041.75;5053097;28;20412;-67
2021/09/06 09:24:55;;;;;;;7.57;6.97;;;;;;;22.79;62.14;97033.88;5052489;28;20436;-59
2021/09/06 09:27:30;;;;;;;7.70;7.00;;;;;;;22.91;63.23;97036.97;5053380;28;20401;-67
2021/09/06 09:29:55;;;;;;;7.30;6.77;;;;;;;23.00;63.55;97034.44;5053348;28;20978;-59
2021/09/06 09:32:20;;;;;;;6.63;6.00;;;;;;;23.05;63.52;97020.94;5053186;28;20440;-59
2021/09/06 09:34:46;;;;;;;7.50;6.80;;;;;;;23.16;62.31;97030.47;5052805;28;20195;-67
2021/09/06 09:37:11;;;;;;;7.60;6.77;;;;;;;23.28;61.83;97034.31;5053198;28;20251;-59
2021/09/06 09:39:37;;;;;;;7.57;6.97;;;;;;;23.40;61.92;97034.72;5053239;28;20263;-67
2021/09/06 09:42:09;;;;;;;7.80;7.20;;;;;;;23.47;61.18;97042.41;5053544;28;20226;-67
2021/09/06 09:44:55;;;;;;;7.13;6.53;;;;;;;23.60;60.31;97030.13;5052716;28;20430;-66
2021/09/06 09:47:24;;;;;;;6.83;6.33;;;;;;;23.71;61.19;97036.94;5053159;28;20501;-60
2021/09/06 09:49:52;;;;;;;8.03;7.13;;;;;;;23.79;58.79;97034.38;5052794;28;20453;-67
2021/09/06 09:52:19;;;;;;;7.80;7.10;;;;;;;23.82;57.67;97041.06;5052815;28;20402;-59
2021/09/06 09:54:49;;;;;;;6.70;6.20;;;;;;;23.94;57.64;97036.84;5052561;28;20837;-66
2021/09/06 09:57:16;;;;;;;9.00;8.10;;;;;;;23.99;56.46;97036.75;5056766;28;20437;-59
2021/09/06 09:59:42;;;;;;;9.00;7.10;;;;;;;24.07;55.50;97033.44;5056788;28;20416;-58
2021/09/06 10:02:14;;;;;;;7.20;6.50;;;;;;;24.20;56.28;97042.59;5056735;28;20496;-66
2021/09/06 10:04:46;;;;;;;9.40;7.10;;;;;;;24.33;57.45;97039.16;5056074;28;20191;-59
2021/09/06 10:07:12;;;;;;;8.00;7.30;;;;;;;24.43;55.67;97028.22;5056789;28;20425;-66
2021/09/06 10:09:42;;;;;;;7.03;6.43;;;;;;;24.50;57.62;97028.59;5056426;28;20406;-67
2021/09/06 10:12:09;;;;;;;7.77;7.07;;;;;;;24.65;57.47;97019.47;5056536;28;20175;-66
2021/09/06 10:14:34;;;;;;;7.87;7.17;;;;;;;24.70;55.84;97027.41;5055890;28;20520;-66
2021/09/06 10:17:01;;;;;;;7.90;7.17;;;;;;;24.82;54.56;97022.38;5056775;28;20536;-67
2021/09/06 10:19:49;;;;;;;8.90;7.63;;;;;;;24.79;55.27;97017.59;5056277;28;20176;-59
2021/09/06 10:22:28;;;;;;;6.90;6.30;;;;;;;24.93;54.97;97021.09;5056349;28;20413;-67
2021/09/06 10:25:01;;;;;;;7.90;7.20;;;;;;;24.97;55.85;97008.59;5054418;28;20805;-65
2021/09/06 10:27:30;;;;;;;8.00;7.30;;;;;;;25.02;53.42;97009.28;5056507;28;20416;-59
2021/09/06 10:30:16;;;;;;;8.03;7.33;;;;;;;25.15;53.97;97011.16;5055892;28;20502;-66
2021/09/06 10:32:48;;;;;;;8.03;7.33;;;;;;;25.21;52.68;97012.66;5055775;28;20781;-59
2021/09/06 10:35:22;;;;;;;7.80;7.20;;;;;;;25.28;52.81;97006.84;5056034;28;20773;-59
2021/09/06 10:38:11;;;;;;;8.87;6.93;;;;;;;25.41;53.40;97006.84;5056106;28;20473;-59
2021/09/06 10:40:40;;;;;;;7.27;6.77;;;;;;;25.49;52.27;97013.41;5054733;28;20406;-66
2021/09/06 10:43:11;;;;;;;7.57;6.87;;;;;;;25.58;52.82;97008.09;5055669;28;20917;-59
2021/09/06 10:45:39;;;;;;;7.90;7.20;;;;;;;25.59;51.11;97012.38;5055663;28;20943;-66
2021/09/06 10:48:05;;;;;;;8.07;7.37;;;;;;;25.58;49.69;97014.28;5055917;28;20414;-66
2021/09/06 10:50:30;;;;;;;8.20;7.50;;;;;;;25.71;50.63;97005.31;5055605;28;20446;-59
2021/09/06 10:52:56;;;;;;;7.70;6.90;;;;;;;25.81;49.19;97001.59;5055460;28;20425;-66
2021/09/06 10:55:21;;;;;;;8.23;7.43;;;;;;;25.75;46.43;97003.63;5055444;28;20196;-67
2021/09/06 10:57:47;;;;;;;8.87;8.07;;;;;;;25.80;45.79;97008.88;5055489;28;20207;-59
2021/09/06 11:00:15;;;;;;;8.10;7.40;;;;;;;25.99;49.90;97004.09;5055667;28;20168;-59
2021/09/06 11:02:42;;;;;;;7.53;6.83;;;;;;;26.15;50.71;97002.63;5055102;28;20199;-59
2021/09/06 11:05:15;;;;;;;7.97;7.20;;;;;;;26.27;51.68;96996.69;5055355;28;20429;-59
2021/09/06 11:07:40;;;;;;;6.80;6.10;;;;;;;26.29;46.73;96989.84;5054209;28;20406;-67
2021/09/06 11:10:08;;;;;;;7.20;6.60;;;;;;;26.32;47.09;96991.94;5055205;28;20527;-58
2021/09/06 11:12:34;;;;;;;7.30;6.60;;;;;;;26.40;47.36;96993.06;5055328;28;20203;-60
2021/09/06 11:14:59;;;;;;;7.17;6.57;;;;;;;26.45;45.80;96993.72;5067928;28;20474;-70
2021/09/06 11:17:26;;;;;;;8.33;7.60;;;;;;;26.55;46.72;96991.88;5073429;28;20637;-69
2021/09/06 11:19:56;;;;;;;7.63;6.93;;;;;;;26.47;43.39;96992.66;5066796;28;20254;-69
2021/09/06 11:22:22;;;;;;;7.27;6.67;;;;;;;26.63;45.43;96988.41;5075152;28;20467;-62
2021/09/06 11:24:49;;;;;;;7.17;6.57;;;;;;;26.71;48.16;96998.44;5073801;28;20453;-69
2021/09/06 11:27:26;;;;;;;8.10;7.30;;;;;;;26.81;48.51;96998.19;5073916;28;20963;-67